Time;durP1;ratioP1;P1;durP2;ratioP2;P2;SDS_P1;SDS_P2;PMS_P1;PMS_P2;Temp;Humidity;BMP_temperature;BMP_pressure;BME280_temperature;BME280_humidity;BME280_pressure;Samples;Min_cycle;Max_cycle;Signal;HPM_P1;HPM_P2
2021/11/15 00:01:43;;;;;;;4.38;1.77;;;;;;;;;;4981499;28;20050;-67
2021/11/15 00:04:11;;;;;;;4.05;1.95;;;;;;;;;;4985342;28;20054;-68
2021/11/15 00:06:38;;;;;;;3.20;1.95;;;;;;;;;;4982170;28;20120;-68
2021/11/15 00:09:05;;;;;;;2.40;1.85;;;;;;;;;;4983910;28;20078;-67
2021/11/15 00:11:31;;;;;;;3.83;2.10;;;;;;;;;;4984661;28;20134;-67
2021/11/15 00:13:58;;;;;;;3.85;1.83;;;;;;;;;;4982194;28;20372;-67
2021/11/15 00:16:25;;;;;;;4.97;1.90;;;;;;;;;;4978817;28;20140;-67
2021/11/15 00:18:51;;;;;;;4.10;1.60;;;;;;;;;;4985761;28;20054;-68
2021/11/15 00:21:18;;;;;;;4.22;2.22;;;;;;;;;;4988622;28;20122;-67
2021/11/15 00:23:44;;;;;;;3.90;2.05;;;;;;;;;;4980404;28;20074;-67
2021/11/15 00:26:11;;;;;;;6.00;2.08;;;;;;;;;;4978815;28;20086;-68
2021/11/15 00:28:38;;;;;;;4.28;1.77;;;;;;;;;;4984276;28;20076;-67
2021/11/15 00:31:06;;;;;;;4.05;1.70;;;;;;;;;;4981480;28;20078;-68
2021/11/15 00:33:32;;;;;;;6.13;2.13;;;;;;;;;;4983246;28;20046;-67
2021/11/15 00:35:59;;;;;;;4.35;1.60;;;;;;;;;;4982580;28;20051;-67
2021/11/15 00:38:25;;;;;;;5.30;1.77;;;;;;;;;;4986816;28;20093;-67
2021/11/15 00:40:52;;;;;;;5.68;2.05;;;;;;;;;;4987111;28;20078;-68
2021/11/15 00:43:18;;;;;;;5.57;2.03;;;;;;;;;;4988506;28;20558;-67
2021/11/15 00:45:45;;;;;;;3.28;1.70;;;;;;;;;;4988427;28;20090;-67
2021/11/15 00:48:11;;;;;;;1.98;1.75;;;;;;;;;;4981998;28;20086;-67
2021/11/15 00:50:39;;;;;;;2.70;2.10;;;;;;;;;;4986673;28;20074;-67
2021/11/15 00:53:06;;;;;;;5.53;2.15;;;;;;;;;;4980103;28;20134;-67
2021/11/15 00:55:33;;;;;;;3.72;2.03;;;;;;;;;;4989603;28;20076;-67
2021/11/15 00:58:00;;;;;;;;;;;;;;;;;;4991326;28;20550;-68
2021/11/15 01:00:28;;;;;;;4.55;2.17;;;;;;;;;;4984745;28;19969;-67
2021/11/15 01:02:54;;;;;;;;;;;;;;;;;;4987233;28;20050;-67
2021/11/15 01:05:21;;;;;;;4.00;1.92;;;;;;;;;;4984401;28;20418;-68
2021/11/15 01:07:47;;;;;;;4.55;2.53;;;;;;;;;;4985194;28;20112;-67
2021/11/15 01:10:16;;;;;;;3.03;1.80;;;;;;;;;;4986873;28;20130;-67
2021/11/15 01:12:43;;;;;;;6.32;2.30;;;;;;;;;;4984211;28;20046;-67
2021/11/15 01:15:11;;;;;;;3.92;2.15;;;;;;;;;;4990599;28;20054;-67
2021/11/15 01:17:37;;;;;;;6.07;2.40;;;;;;;;;;4987736;28;20422;-67
2021/11/15 01:20:06;;;;;;;3.73;2.13;;;;;;;;;;4990838;28;20125;-67
2021/11/15 01:22:33;;;;;;;5.45;2.40;;;;;;;;;;4986505;28;20723;-67
2021/11/15 01:25:00;;;;;;;2.35;1.48;;;;;;;;;;4990966;28;20454;-67
2021/11/15 01:27:26;;;;;;;2.28;1.90;;;;;;;;;;4990273;28;20552;-67
2021/11/15 01:29:56;;;;;;;4.68;2.00;;;;;;;;;;4988073;28;20089;-67
2021/11/15 01:32:22;;;;;;;5.90;2.17;;;;;;;;;;4986036;28;20135;-67
2021/11/15 01:34:50;;;;;;;8.10;2.70;;;;;;;;;;4986423;28;20082;-68
2021/11/15 01:37:17;;;;;;;3.42;2.17;;;;;;;;;;4988674;28;20570;-67
2021/11/15 01:39:43;;;;;;;2.77;1.80;;;;;;;;;;4988712;28;20042;-67
2021/11/15 01:42:11;;;;;;;;;;;;;;;;;;4989964;28;20451;-67
2021/11/15 01:44:37;;;;;;;6.45;2.20;;;;;;;;;;4989680;28;19969;-67
2021/11/15 01:47:04;;;;;;;4.28;2.58;;;;;;;;;;4986864;28;20440;-67
2021/11/15 01:49:30;;;;;;;4.93;2.37;;;;;;;;;;4984209;28;20133;-67
2021/11/15 01:51:57;;;;;;;4.45;2.33;;;;;;;;;;4991536;28;20133;-67
2021/11/15 01:54:24;;;;;;;4.53;2.70;;;;;;;;;;4989173;28;20078;-67
2021/11/15 01:56:52;;;;;;;3.72;2.22;;;;;;;;;;4988298;28;20145;-67
2021/11/15 01:59:18;;;;;;;3.60;1.98;;;;;;;;;;4984269;28;20129;-67
2021/11/15 02:01:44;;;;;;;2.95;2.25;;;;;;;;;;4978650;28;20079;-67
2021/11/15 02:04:11;;;;;;;3.83;2.20;;;;;;;;;;4982939;28;20149;-67
2021/11/15 02:06:38;;;;;;;5.78;2.17;;;;;;;;;;4981670;28;20059;-67
2021/11/15 02:09:04;;;;;;;6.75;2.67;;;;;;;;;;4981581;28;20085;-67
2021/11/15 02:11:32;;;;;;;2.75;2.20;;;;;;;;;;4980199;28;20188;-67
2021/11/15 02:13:59;;;;;;;4.50;2.30;;;;;;;;;;4986651;28;20074;-67
2021/11/15 02:16:26;;;;;;;2.88;2.00;;;;;;;;;;4986099;28;20078;-67
2021/11/15 02:18:54;;;;;;;3.38;1.90;;;;;;;;;;4982568;28;20061;-67
2021/11/15 02:21:22;;;;;;;6.72;2.60;;;;;;;;;;4983271;28;20074;-68
2021/11/15 02:23:49;;;;;;;4.07;2.40;;;;;;;;;;4982189;28;20079;-67
2021/11/15 02:26:17;;;;;;;2.83;2.00;;;;;;;;;;4985763;28;20450;-67
2021/11/15 02:28:45;;;;;;;11.63;2.80;;;;;;;;;;4989890;28;20093;-67
2021/11/15 02:31:13;;;;;;;4.10;2.20;;;;;;;;;;4981736;28;20606;-67
2021/11/15 02:33:40;;;;;;;3.65;2.08;;;;;;;;;;4983553;28;20050;-67
2021/11/15 02:36:07;;;;;;;3.55;2.30;;;;;;;;;;4978589;28;20078;-67
2021/11/15 02:38:34;;;;;;;3.53;1.92;;;;;;;;;;4984534;28;20447;-68
2021/11/15 02:41:01;;;;;;;4.03;2.63;;;;;;;;;;4985730;28;20637;-67
2021/11/15 02:43:27;;;;;;;4.05;2.38;;;;;;;;;;4987732;28;20066;-67
2021/11/15 02:45:56;;;;;;;5.28;2.58;;;;;;;;;;4983490;28;20050;-67
2021/11/15 02:48:24;;;;;;;3.63;2.30;;;;;;;;;;4979187;28;20042;-67
2021/11/15 02:50:50;;;;;;;2.92;2.30;;;;;;;;;;4983362;28;20144;-67
2021/11/15 02:53:17;;;;;;;3.97;2.40;;;;;;;;;;4986519;28;20141;-67
2021/11/15 02:55:43;;;;;;;3.45;2.50;;;;;;;;;;4976246;28;20138;-67
2021/11/15 02:58:11;;;;;;;7.65;2.50;;;;;;;;;;4979722;28;20047;-67
2021/11/15 03:00:48;;;;;;;3.28;2.13;;;;;;;;;;4984461;28;20435;-67
2021/11/15 03:03:16;;;;;;;5.97;2.45;;;;;;;;;;4981317;28;20051;-67
2021/11/15 03:05:43;;;;;;;5.13;2.37;;;;;;;;;;4979224;28;20127;-67
2021/11/15 03:08:10;;;;;;;5.90;2.75;;;;;;;;;;4982490;28;20380;-67
2021/11/15 03:10:38;;;;;;;4.97;2.20;;;;;;;;;;4982352;28;20054;-67
2021/11/15 03:13:05;;;;;;;;;;;;;;;;;;4973034;28;20133;-67
2021/11/15 03:15:33;;;;;;;3.88;2.10;;;;;;;;;;4980904;28;19965;-67
2021/11/15 03:18:03;;;;;;;3.72;2.58;;;;;;;;;;4987442;28;20499;-67
2021/11/15 03:20:31;;;;;;;4.50;2.33;;;;;;;;;;4987336;28;20082;-67
2021/11/15 03:22:58;;;;;;;4.07;2.45;;;;;;;;;;4981244;28;20046;-67
2021/11/15 03:25:26;;;;;;;7.75;2.55;;;;;;;;;;4981721;28;20066;-67
2021/11/15 03:27:53;;;;;;;4.25;2.42;;;;;;;;;;4979711;28;20138;-68
2021/11/15 03:30:20;;;;;;;3.00;2.42;;;;;;;;;;4983448;28;20058;-67
2021/11/15 03:32:49;;;;;;;3.70;2.38;;;;;;;;;;4986875;28;20137;-67
2021/11/15 03:35:16;;;;;;;3.63;2.22;;;;;;;;;;4988375;28;20050;-67
2021/11/15 03:37:43;;;;;;;4.50;2.33;;;;;;;;;;4986063;28;20047;-67
2021/11/15 03:40:15;;;;;;;6.25;3.30;;;;;;;;;;4982934;28;20414;-67
2021/11/15 03:42:42;;;;;;;5.32;2.60;;;;;;;;;;4981421;28;20043;-68
2021/11/15 03:45:10;;;;;;;2.53;2.13;;;;;;;;;;4981474;28;20142;-67
2021/11/15 03:47:37;;;;;;;5.03;2.67;;;;;;;;;;4978880;28;20078;-67
2021/11/15 03:50:04;;;;;;;4.20;2.92;;;;;;;;;;4984147;28;20137;-68
2021/11/15 03:52:31;;;;;;;3.00;2.22;;;;;;;;;;4983158;28;20574;-67
2021/11/15 03:54:58;;;;;;;3.83;2.42;;;;;;;;;;4984918;28;20130;-67
2021/11/15 03:57:24;;;;;;;4.53;2.42;;;;;;;;;;4968867;28;20523;-67
2021/11/15 03:59:51;;;;;;;5.82;2.83;;;;;;;;;;4980254;28;20082;-67
2021/11/15 04:02:20;;;;;;;5.00;2.67;;;;;;;;;;4983076;28;20471;-67
2021/11/15 04:04:57;;;;;;;5.18;2.80;;;;;;;;;;4979812;28;20064;-67
2021/11/15 04:07:31;;;;;;;4.07;2.30;;;;;;;;;;4980664;28;20058;-67
2021/11/15 04:09:59;;;;;;;8.15;2.42;;;;;;;;;;4978952;28;20054;-67
2021/11/15 04:12:27;;;;;;;3.92;2.80;;;;;;;;;;4979067;28;20073;-67
2021/11/15 04:14:54;;;;;;;3.33;2.30;;;;;;;;;;4986690;28;20142;-67
2021/11/15 04:17:20;;;;;;;5.50;2.55;;;;;;;;;;4984793;28;20089;-67
2021/11/15 04:19:48;;;;;;;4.53;2.50;;;;;;;;;;4984414;28;20074;-67
2021/11/15 04:22:15;;;;;;;4.43;2.60;;;;;;;;;;4984931;28;20603;-67
2021/11/15 04:24:41;;;;;;;4.53;2.83;;;;;;;;;;4988177;28;20134;-67
2021/11/15 04:27:08;;;;;;;5.57;2.63;;;;;;;;;;4988207;28;20141;-67
2021/11/15 04:29:35;;;;;;;4.53;2.40;;;;;;;;;;4989417;28;20050;-67
2021/11/15 04:32:05;;;;;;;4.53;2.53;;;;;;;;;;4989097;28;20484;-68
2021/11/15 04:34:32;;;;;;;6.07;2.88;;;;;;;;;;4984078;28;20074;-67
2021/11/15 04:36:59;;;;;;;5.85;3.00;;;;;;;;;;4985061;28;20571;-67
2021/11/15 04:39:25;;;;;;;8.05;2.55;;;;;;;;;;4989888;28;20081;-67
2021/11/15 04:41:52;;;;;;;2.35;2.00;;;;;;;;;;4983562;28;20051;-67
2021/11/15 04:44:18;;;;;;;4.65;2.78;;;;;;;;;;4987693;28;20077;-67
2021/11/15 04:46:45;;;;;;;4.32;2.78;;;;;;;;;;4986357;28;20053;-67
2021/11/15 04:49:12;;;;;;;7.20;3.42;;;;;;;;;;4986902;28;20096;-67
2021/11/15 04:51:38;;;;;;;3.00;2.33;;;;;;;;;;4987121;28;20570;-67
2021/11/15 04:54:05;;;;;;;3.70;2.83;;;;;;;;;;4988616;28;20555;-67
2021/11/15 04:56:32;;;;;;;6.90;3.33;;;;;;;;;;4982155;28;20058;-67
2021/11/15 04:58:58;;;;;;;5.85;3.20;;;;;;;;;;4990065;28;20137;-67
2021/11/15 05:01:25;;;;;;;5.43;2.80;;;;;;;;;;4990462;28;20137;-67
2021/11/15 05:03:52;;;;;;;4.10;2.53;;;;;;;;;;4987150;28;20076;-67
2021/11/15 05:06:19;;;;;;;4.40;3.15;;;;;;;;;;4988047;28;20105;-67
2021/11/15 05:08:46;;;;;;;4.28;2.85;;;;;;;;;;4983694;28;20137;-67
2021/11/15 05:11:13;;;;;;;5.03;2.95;;;;;;;;;;4987161;28;20043;-67
2021/11/15 05:13:39;;;;;;;4.53;2.72;;;;;;;;;;4988689;28;20073;-67
2021/11/15 05:16:06;;;;;;;4.40;2.88;;;;;;;;;;4988467;28;20091;-67
2021/11/15 05:18:38;;;;;;;4.22;2.85;;;;;;;;;;4986995;28;20050;-67
2021/11/15 05:21:04;;;;;;;4.70;2.95;;;;;;;;;;4991038;28;20082;-67
2021/11/15 05:23:32;;;;;;;4.85;2.90;;;;;;;;;;4990199;28;20062;-67
2021/11/15 05:25:59;;;;;;;5.25;2.78;;;;;;;;;;4986036;28;20078;-67
2021/11/15 05:28:26;;;;;;;5.25;3.00;;;;;;;;;;4979890;28;20475;-67
2021/11/15 05:30:52;;;;;;;4.68;2.92;;;;;;;;;;4984407;28;20078;-67
2021/11/15 05:33:19;;;;;;;5.93;3.00;;;;;;;;;;4990066;28;20728;-67
2021/11/15 05:35:45;;;;;;;3.60;2.97;;;;;;;;;;4986690;28;20105;-67
2021/11/15 05:38:12;;;;;;;5.35;2.92;;;;;;;;;;4986062;28;20615;-67
2021/11/15 05:40:39;;;;;;;4.35;2.72;;;;;;;;;;4971177;28;20126;-67
2021/11/15 05:43:05;;;;;;;7.17;3.13;;;;;;;;;;4980235;28;20529;-67
2021/11/15 05:45:32;;;;;;;4.22;3.00;;;;;;;;;;4966683;28;20043;-67
2021/11/15 05:47:59;;;;;;;3.78;2.92;;;;;;;;;;4984782;28;20050;-67
2021/11/15 05:50:27;;;;;;;3.95;2.75;;;;;;;;;;4987000;28;20093;-67
2021/11/15 05:52:53;;;;;;;4.53;2.65;;;;;;;;;;4980767;28;20097;-67
2021/11/15 05:55:22;;;;;;;8.82;3.13;;;;;;;;;;4989039;28;20129;-67
2021/11/15 05:57:49;;;;;;;4.40;2.78;;;;;;;;;;4986786;28;20064;-67
2021/11/15 06:00:17;;;;;;;4.93;2.58;;;;;;;;;;4984053;28;20137;-67
2021/11/15 06:02:44;;;;;;;5.38;2.63;;;;;;;;;;4985335;28;20050;-67
2021/11/15 06:05:10;;;;;;;7.10;2.72;;;;;;;;;;4977190;28;20050;-67
2021/11/15 06:07:37;;;;;;;4.38;2.70;;;;;;;;;;4986431;28;20047;-67
2021/11/15 06:10:06;;;;;;;5.47;3.33;;;;;;;;;;4985056;28;20518;-67
2021/11/15 06:12:32;;;;;;;4.10;2.80;;;;;;;;;;4980786;28;20093;-67
2021/11/15 06:15:01;;;;;;;5.88;3.15;;;;;;;;;;4984293;28;20078;-67
2021/11/15 06:17:28;;;;;;;4.05;2.92;;;;;;;;;;4988299;28;20112;-67
2021/11/15 06:19:55;;;;;;;7.03;2.92;;;;;;;;;;4979426;28;20145;-67
2021/11/15 06:22:21;;;;;;;6.03;3.10;;;;;;;;;;4978230;28;20451;-67
2021/11/15 06:24:48;;;;;;;6.10;3.10;;;;;;;;;;4978545;28;20478;-67
2021/11/15 06:27:15;;;;;;;6.78;3.13;;;;;;;;;;4981037;28;20082;-67
2021/11/15 06:29:42;;;;;;;6.82;3.22;;;;;;;;;;4986258;28;20086;-67
2021/11/15 06:32:09;;;;;;;;;;;;;;;;;;4983621;28;20082;-67
2021/11/15 06:34:36;;;;;;;6.15;3.17;;;;;;;;;;4982576;28;20493;-67
2021/11/15 06:37:03;;;;;;;4.63;3.50;;;;;;;;;;4985806;28;20570;-67
2021/11/15 06:39:30;;;;;;;5.72;3.05;;;;;;;;;;4982470;28;20055;-67
2021/11/15 06:41:57;;;;;;;5.80;3.30;;;;;;;;;;4981080;28;20108;-67
2021/11/15 06:44:24;;;;;;;5.60;3.30;;;;;;;;;;4977590;28;20078;-67
2021/11/15 06:46:52;;;;;;;6.85;3.65;;;;;;;;;;4976859;28;20522;-67
2021/11/15 06:49:18;;;;;;;6.45;3.70;;;;;;;;;;4983129;28;20054;-68
2021/11/15 06:51:45;;;;;;;8.15;3.80;;;;;;;;;;4985463;28;20506;-67
2021/11/15 06:54:13;;;;;;;7.20;3.50;;;;;;;;;;4981289;28;20150;-67
2021/11/15 06:56:40;;;;;;;7.18;2.97;;;;;;;;;;4983280;28;20150;-67
2021/11/15 06:59:06;;;;;;;6.70;3.50;;;;;;;;;;4984586;28;20054;-67
2021/11/15 07:01:36;;;;;;;7.22;2.42;;;;;;;;;;4980166;28;20054;-67
2021/11/15 07:04:03;;;;;;;10.27;3.47;;;;;;;;;;4978858;28;20050;-68
2021/11/15 07:06:29;;;;;;;6.60;3.30;;;;;;;;;;4980618;28;20137;-67
2021/11/15 07:08:56;;;;;;;8.60;3.80;;;;;;;;;;4980844;28;20109;-67
2021/11/15 07:11:23;;;;;;;4.60;3.50;;;;;;;;;;4975548;28;20134;-67
2021/11/15 07:13:49;;;;;;;8.52;3.60;;;;;;;;;;4978425;28;20109;-67
2021/11/15 07:16:16;;;;;;;4.45;3.13;;;;;;;;;;4980620;28;20156;-67
2021/11/15 07:18:43;;;;;;;9.53;4.00;;;;;;;;;;4982575;28;20144;-67
2021/11/15 07:21:09;;;;;;;5.18;3.58;;;;;;;;;;4984810;28;20077;-67
2021/11/15 07:23:36;;;;;;;7.85;3.70;;;;;;;;;;4983695;28;20086;-67
2021/11/15 07:26:02;;;;;;;7.85;3.88;;;;;;;;;;4981423;28;20142;-67
2021/11/15 07:28:29;;;;;;;14.20;6.63;;;;;;;;;;4980492;28;20489;-67
2021/11/15 07:30:56;;;;;;;8.47;4.40;;;;;;;;;;4977617;28;20130;-69
2021/11/15 07:33:24;;;;;;;8.95;4.53;;;;;;;;;;4983147;28;20078;-67
2021/11/15 07:35:50;;;;;;;7.47;3.90;;;;;;;;;;4984192;28;20487;-68
2021/11/15 07:38:17;;;;;;;8.02;3.72;;;;;;;;;;4973682;28;20137;-67
2021/11/15 07:40:44;;;;;;;8.33;3.73;;;;;;;;;;4974278;28;20097;-67
2021/11/15 07:43:10;;;;;;;5.43;3.60;;;;;;;;;;4980100;28;20352;-67
2021/11/15 07:45:37;;;;;;;5.13;3.10;;;;;;;;;;4975476;28;20142;-67
2021/11/15 07:48:04;;;;;;;7.40;4.05;;;;;;;;;;4984631;28;20082;-67
2021/11/15 07:50:30;;;;;;;4.93;3.45;;;;;;;;;;4984530;28;20114;-67
2021/11/15 07:52:57;;;;;;;6.33;3.97;;;;;;;;;;4982194;28;20137;-67
2021/11/15 07:55:23;;;;;;;7.20;3.72;;;;;;;;;;4983665;28;20133;-67
2021/11/15 07:57:50;;;;;;;5.68;3.72;;;;;;;;;;4969580;28;20464;-67
2021/11/15 08:00:18;;;;;;;6.00;3.92;;;;;;;;;;4986748;28;20093;-67
2021/11/15 08:02:45;;;;;;;4.78;3.67;;;;;;;;;;4982048;28;20141;-67
2021/11/15 08:05:13;;;;;;;9.82;4.00;;;;;;;;;;4979943;28;20046;-66
2021/11/15 08:07:40;;;;;;;5.38;3.88;;;;;;;;;;4986262;28;20105;-67
2021/11/15 08:10:08;;;;;;;7.55;4.70;;;;;;;;;;4977345;28;20125;-67
2021/11/15 08:12:37;;;;;;;7.82;4.22;;;;;;;;;;4978485;28;20077;-67
2021/11/15 08:15:07;;;;;;;9.00;4.47;;;;;;;;;;4979363;28;20047;-67
2021/11/15 08:17:36;;;;;;;6.70;3.97;;;;;;;;;;4984389;28;20085;-67
2021/11/15 08:20:03;;;;;;;7.70;4.18;;;;;;;;;;4985949;28;20100;-67
2021/11/15 08:22:30;;;;;;;10.07;4.45;;;;;;;;;;4980871;28;20502;-67
2021/11/15 08:25:12;;;;;;;9.37;4.23;;;;;;;;;;4979282;28;20558;-67
2021/11/15 08:27:38;;;;;;;6.40;3.72;;;;;;;;;;4975691;28;20149;-67
2021/11/15 08:30:05;;;;;;;6.07;3.80;;;;;;;;;;4979121;28;20154;-67
2021/11/15 08:32:31;;;;;;;8.10;4.05;;;;;;;;;;4978815;28;20089;-67
2021/11/15 08:34:59;;;;;;;6.57;4.13;;;;;;;;;;4980303;28;20518;-67
2021/11/15 08:37:26;;;;;;;8.13;3.97;;;;;;;;;;4977592;28;20090;-67
2021/11/15 08:39:52;;;;;;;6.50;4.40;;;;;;;;;;4981057;28;20130;-67
2021/11/15 08:42:18;;;;;;;5.65;3.90;;;;;;;;;;4969717;28;20054;-67
2021/11/15 08:44:54;;;;;;;6.55;4.63;;;;;;;;;;4978260;28;20082;-67
2021/11/15 08:47:22;;;;;;;11.80;4.25;;;;;;;;;;4982475;28;20081;-67
2021/11/15 08:49:49;;;;;;;6.03;4.30;;;;;;;;;;4979918;28;20138;-67
2021/11/15 08:52:16;;;;;;;7.00;4.50;;;;;;;;;;4982291;28;20058;-67
2021/11/15 08:54:47;;;;;;;5.85;3.80;;;;;;;;;;4976250;28;20109;-67
2021/11/15 08:57:14;;;;;;;5.72;3.83;;;;;;;;;;4974722;28;20129;-67
2021/11/15 08:59:45;;;;;;;8.18;3.95;;;;;;;;;;4985064;28;20046;-67
2021/11/15 09:02:13;;;;;;;5.95;3.88;;;;;;;;;;4983433;28;20078;-67
2021/11/15 09:04:39;;;;;;;6.10;4.00;;;;;;;;;;4987005;28;20050;-67
2021/11/15 09:07:06;;;;;;;7.15;3.75;;;;;;;;;;4984816;28;20365;-67
2021/11/15 09:09:33;;;;;;;8.15;3.92;;;;;;;;;;4986792;28;20046;-67
2021/11/15 09:12:02;;;;;;;7.28;4.60;;;;;;;;;;4985733;28;20165;-67
2021/11/15 09:14:29;;;;;;;5.45;4.20;;;;;;;;;;4980062;28;20093;-67
2021/11/15 09:16:55;;;;;;;13.15;4.10;;;;;;;;;;4982874;28;20570;-67
2021/11/15 09:19:22;;;;;;;10.07;4.10;;;;;;;;;;4982935;28;21231;-67
2021/11/15 09:21:48;;;;;;;8.30;4.32;;;;;;;;;;4981609;28;20110;-67
2021/11/15 09:24:15;;;;;;;7.17;4.33;;;;;;;;;;4981198;28;20225;-67
2021/11/15 09:26:43;;;;;;;6.37;4.00;;;;;;;;;;4982135;28;20376;-67
2021/11/15 09:29:11;;;;;;;5.30;4.15;;;;;;;;;;4981355;28;20344;-67
2021/11/15 09:31:41;;;;;;;8.93;4.32;;;;;;;;;;4980293;28;20047;-67
2021/11/15 09:34:08;;;;;;;8.20;4.37;;;;;;;;;;4981976;28;20066;-67
2021/11/15 09:36:34;;;;;;;9.18;4.10;;;;;;;;;;4982091;28;20074;-67
2021/11/15 09:39:02;;;;;;;5.72;4.18;;;;;;;;;;4980325;28;20129;-67
2021/11/15 09:41:29;;;;;;;;;;;;;;;;;;4981111;28;20509;-67
2021/11/15 09:43:56;;;;;;;5.93;3.92;;;;;;;;;;4979745;28;19972;-67
2021/11/15 09:46:24;;;;;;;5.30;3.67;;;;;;;;;;4981905;28;20105;-67
2021/11/15 09:48:53;;;;;;;6.25;3.95;;;;;;;;;;4978977;28;20133;-67
2021/11/15 09:51:19;;;;;;;7.75;4.07;;;;;;;;;;4979774;28;20482;-67
2021/11/15 09:53:47;;;;;;;6.55;4.43;;;;;;;;;;4984576;28;20133;-67
2021/11/15 09:56:14;;;;;;;7.47;4.25;;;;;;;;;;4982520;28;20046;-67
2021/11/15 09:58:41;;;;;;;8.25;4.18;;;;;;;;;;4984010;28;20137;-67
2021/11/15 10:01:09;;;;;;;8.13;4.25;;;;;;;;;;4984612;28;20058;-67
2021/11/15 10:03:36;;;;;;;5.55;3.50;;;;;;;;;;4979424;28;20058;-66
2021/11/15 10:06:02;;;;;;;6.47;4.00;;;;;;;;;;4977219;28;20085;-67
2021/11/15 10:08:55;;;;;;;4.82;3.65;;;;;;;;;;4981881;28;20086;-67
2021/11/15 10:11:23;;;;;;;7.72;3.83;;;;;;;;;;4973424;28;20081;-67
2021/11/15 10:13:51;;;;;;;4.95;3.80;;;;;;;;;;4979920;28;20141;-67
2021/11/15 10:16:26;;;;;;;5.85;3.60;;;;;;;;;;4977453;28;20090;-67
2021/11/15 10:18:53;;;;;;;5.97;3.60;;;;;;;;;;4982802;28;20043;-67
2021/11/15 10:21:20;;;;;;;9.05;3.70;;;;;;;;;;4983144;28;20466;-67
2021/11/15 10:23:48;;;;;;;5.40;3.60;;;;;;;;;;4981069;28;20458;-67
2021/11/15 10:26:28;;;;;;;5.78;3.95;;;;;;;;;;4980351;28;20046;-67
2021/11/15 10:28:56;;;;;;;4.97;4.00;;;;;;;;;;4971572;28;20054;-67
2021/11/15 10:31:24;;;;;;;6.18;3.65;;;;;;;;;;5003994;28;20054;-67
2021/11/15 10:33:52;;;;;;;10.07;3.67;;;;;;;;;;4998498;28;20495;-67
2021/11/15 10:36:41;;;;;;;5.55;3.35;;;;;;;;;;4998323;28;20126;-67
2021/11/15 10:39:08;;;;;;;6.65;3.13;;;;;;;;;;4993178;28;20580;-67
2021/11/15 10:41:35;;;;;;;4.32;3.40;;;;;;;;;;5002500;28;20280;-67
2021/11/15 10:44:05;;;;;;;5.40;3.45;;;;;;;;;;5001084;28;20137;-67
2021/11/15 10:46:34;;;;;;;5.78;3.40;;;;;;;;;;5002733;28;20089;-67
2021/11/15 10:49:02;;;;;;;5.53;3.60;;;;;;;;;;4998599;28;20189;-67
2021/11/15 10:52:06;;;;;;;5.63;3.30;;;;;;;;;;5005340;28;20494;-67
2021/11/15 10:54:44;;;;;;;6.05;3.42;;;;;;;;;;4960460;28;20053;-66
2021/11/15 10:57:19;;;;;;;5.82;3.35;;;;;;;;;;4998426;28;20565;-67
2021/11/15 11:00:06;;;;;;;4.93;3.40;;;;;;;;;;5000146;28;20045;-67
2021/11/15 11:02:36;;;;;;;9.05;3.40;;;;;;;;;;4999866;28;20684;-67
2021/11/15 11:05:11;;;;;;;5.80;3.05;;;;;;;;;;4998983;28;20054;-67
2021/11/15 11:07:38;;;;;;;5.00;3.47;;;;;;;;;;5000019;28;20133;-67
2021/11/15 11:10:09;;;;;;;5.18;3.00;;;;;;;;;;4999596;28;20128;-67
2021/11/15 11:12:40;;;;;;;4.95;3.20;;;;;;;;;;4998900;28;20129;-67
2021/11/15 11:15:28;;;;;;;4.20;3.10;;;;;;;;;;4999400;28;20069;-67
2021/11/15 11:17:59;;;;;;;6.68;3.50;;;;;;;;;;4999709;28;20137;-67
2021/11/15 11:20:32;;;;;;;5.30;3.10;;;;;;;;;;4999821;28;20061;-67
2021/11/15 11:23:17;;;;;;;6.10;3.58;;;;;;;;;;5004334;28;20049;-67
2021/11/15 11:25:44;;;;;;;5.25;2.88;;;;;;;;;;4998953;28;20561;-67
2021/11/15 11:28:30;;;;;;;7.32;3.30;;;;;;;;;;5002456;28;20101;-67
2021/11/15 11:31:00;;;;;;;6.45;3.05;;;;;;;;;;5000582;28;20117;-67
2021/11/15 11:33:29;;;;;;;3.70;2.83;;;;;;;;;;4997168;28;20046;-67
2021/11/15 11:35:56;;;;;;;5.00;2.90;;;;;;;;;;5003686;28;20550;-67
2021/11/15 11:38:23;;;;;;;5.82;3.10;;;;;;;;;;5003836;28;20078;-67
2021/11/15 11:40:53;;;;;;;6.97;3.38;;;;;;;;;;5003482;28;20077;-67
2021/11/15 11:43:20;;;;;;;8.07;3.22;;;;;;;;;;5002299;28;20581;-67
2021/11/15 11:45:47;;;;;;;6.32;3.47;;;;;;;;;;5002671;28;20054;-67
2021/11/15 11:48:15;;;;;;;6.05;3.30;;;;;;;;;;5005185;28;20058;-67
2021/11/15 11:50:45;;;;;;;5.28;3.22;;;;;;;;;;5002578;28;20097;-67
2021/11/15 11:53:18;;;;;;;3.95;3.10;;;;;;;;;;4994801;28;20661;-67
2021/11/15 11:55:45;;;;;;;4.88;3.33;;;;;;;;;;4998596;28;20137;-67
2021/11/15 11:58:18;;;;;;;7.40;3.88;;;;;;;;;;4987486;28;20104;-67
2021/11/15 12:00:52;;;;;;;9.18;3.55;;;;;;;;;;5005880;28;20050;-67
2021/11/15 12:03:19;;;;;;;7.03;3.30;;;;;;;;;;5000882;28;20502;-67
2021/11/15 12:05:46;;;;;;;7.32;3.35;;;;;;;;;;4998715;28;20081;-67
2021/11/15 12:08:12;;;;;;;4.25;3.17;;;;;;;;;;4999587;28;20161;-67
2021/11/15 12:10:46;;;;;;;6.37;3.87;;;;;;;;;;4996490;28;20124;-67
2021/11/15 12:13:12;;;;;;;8.23;3.45;;;;;;;;;;4997732;28;20498;-67
2021/11/15 12:15:55;;;;;;;8.30;3.80;;;;;;;;;;4998656;28;20081;-67
2021/11/15 12:18:27;;;;;;;7.05;3.28;;;;;;;;;;4997091;28;20597;-67
2021/11/15 12:21:05;;;;;;;9.60;3.40;;;;;;;;;;4998874;28;20100;-67
2021/11/15 12:23:37;;;;;;;4.93;3.35;;;;;;;;;;4998109;28;20050;-67
2021/11/15 12:26:11;;;;;;;7.57;3.83;;;;;;;;;;4997846;28;20085;-67
2021/11/15 12:28:42;;;;;;;6.65;3.03;;;;;;;;;;5000085;28;20049;-67
2021/11/15 12:31:10;;;;;;;6.82;3.80;;;;;;;;;;4998241;28;20054;-67
2021/11/15 12:33:38;;;;;;;5.40;3.42;;;;;;;;;;5006073;28;20065;-67
2021/11/15 12:36:05;;;;;;;4.88;3.33;;;;;;;;;;5006101;28;20046;-67
2021/11/15 12:38:31;;;;;;;5.20;3.67;;;;;;;;;;5003483;28;20085;-67
2021/11/15 12:40:58;;;;;;;5.00;3.70;;;;;;;;;;5002091;28;20065;-67
2021/11/15 12:43:24;;;;;;;8.13;3.80;;;;;;;;;;5003918;28;20148;-67
2021/11/15 12:46:06;;;;;;;6.27;3.40;;;;;;;;;;5002013;28;20470;-67
2021/11/15 12:48:40;;;;;;;6.93;3.72;;;;;;;;;;5000945;28;20046;-67
2021/11/15 12:51:10;;;;;;;6.40;3.70;;;;;;;;;;5002752;28;20141;-67
2021/11/15 12:53:42;;;;;;;8.20;3.58;;;;;;;;;;5001987;28;20089;-67
2021/11/15 12:56:10;;;;;;;5.78;3.45;;;;;;;;;;5001210;28;20136;-67
2021/11/15 12:58:36;;;;;;;6.13;3.88;;;;;;;;;;5001622;28;20053;-67
2021/11/15 13:01:03;;;;;;;7.78;3.80;;;;;;;;;;5002712;28;20586;-67
2021/11/15 13:03:29;;;;;;;7.32;3.92;;;;;;;;;;5000018;28;20173;-67
2021/11/15 13:05:56;;;;;;;8.40;3.50;;;;;;;;;;5001578;28;20085;-67
2021/11/15 13:08:22;;;;;;;8.43;3.75;;;;;;;;;;5001316;28;20077;-67
2021/11/15 13:10:50;;;;;;;9.80;3.90;;;;;;;;;;5001923;28;20128;-67
2021/11/15 13:13:17;;;;;;;5.65;3.47;;;;;;;;;;5001929;28;20129;-67
2021/11/15 13:15:44;;;;;;;10.27;3.85;;;;;;;;;;5002589;28;20081;-67
2021/11/15 13:18:10;;;;;;;6.57;3.80;;;;;;;;;;5001477;28;20054;-67
2021/11/15 13:20:37;;;;;;;6.60;3.72;;;;;;;;;;5000177;28;20057;-67
2021/11/15 13:23:03;;;;;;;9.70;3.70;;;;;;;;;;5001391;28;20140;-67
2021/11/15 13:25:30;;;;;;;4.40;3.28;;;;;;;;;;5001173;28;20183;-67
2021/11/15 13:27:57;;;;;;;6.50;3.95;;;;;;;;;;5000948;28;20497;-67
2021/11/15 13:30:24;;;;;;;9.18;4.03;;;;;;;;;;4999511;28;20138;-67
2021/11/15 13:32:51;;;;;;;10.52;4.20;;;;;;;;;;4999354;28;20502;-67
2021/11/15 13:35:19;;;;;;;6.63;3.60;;;;;;;;;;4999734;28;20046;-67
2021/11/15 13:37:46;;;;;;;7.63;4.15;;;;;;;;;;5001008;28;20474;-67
2021/11/15 13:40:12;;;;;;;6.85;3.97;;;;;;;;;;4999850;28;20081;-66
2021/11/15 13:42:39;;;;;;;10.85;4.03;;;;;;;;;;5000346;28;20085;-67
2021/11/15 13:45:06;;;;;;;6.77;4.00;;;;;;;;;;4998044;28;20470;-67
2021/11/15 13:47:33;;;;;;;7.85;4.03;;;;;;;;;;5000801;28;20121;-67
2021/11/15 13:49:59;;;;;;;8.63;4.20;;;;;;;;;;5001089;28;20401;-67
2021/11/15 13:52:26;;;;;;;5.87;4.20;;;;;;;;;;5000711;28;20053;-67
2021/11/15 13:54:53;;;;;;;6.40;4.40;;;;;;;;;;4986862;28;20085;-67
2021/11/15 13:57:23;;;;;;;7.20;3.80;;;;;;;;;;4999892;28;20599;-67
2021/11/15 13:59:51;;;;;;;10.30;4.72;;;;;;;;;;4999624;28;20073;-67
2021/11/15 14:02:18;;;;;;;7.72;4.15;;;;;;;;;;5000171;28;20046;-67
2021/11/15 14:04:44;;;;;;;5.18;3.85;;;;;;;;;;5000006;28;20121;-67
2021/11/15 14:07:15;;;;;;;9.25;4.50;;;;;;;;;;4999153;28;20057;-67
2021/11/15 14:09:41;;;;;;;8.00;4.53;;;;;;;;;;5000012;28;20173;-67
2021/11/15 14:12:08;;;;;;;9.05;4.65;;;;;;;;;;4999716;28;20140;-67
2021/11/15 14:14:34;;;;;;;8.83;4.40;;;;;;;;;;4997759;28;20046;-67
2021/11/15 14:17:01;;;;;;;6.30;4.45;;;;;;;;;;4999039;28;20172;-67
2021/11/15 14:19:27;;;;;;;8.43;4.47;;;;;;;;;;4999776;28;20132;-67
2021/11/15 14:21:56;;;;;;;10.27;4.50;;;;;;;;;;4999241;28;20503;-67
2021/11/15 14:24:23;;;;;;;5.80;4.35;;;;;;;;;;4985878;28;20132;-67
2021/11/15 14:26:51;;;;;;;8.38;5.03;;;;;;;;;;5003962;28;20503;-67
2021/11/15 14:29:18;;;;;;;8.18;4.47;;;;;;;;;;5000543;28;20593;-67
2021/11/15 14:31:46;;;;;;;6.85;4.75;;;;;;;;;;5000078;28;20093;-67
2021/11/15 14:34:13;;;;;;;6.90;4.40;;;;;;;;;;4992482;28;20136;-67
2021/11/15 14:36:40;;;;;;;6.88;4.40;;;;;;;;;;4997234;28;20510;-67
2021/11/15 14:39:06;;;;;;;8.80;4.45;;;;;;;;;;4999599;28;20203;-67
2021/11/15 14:41:33;;;;;;;7.20;4.50;;;;;;;;;;4999209;28;20564;-66
2021/11/15 14:44:04;;;;;;;7.00;4.80;;;;;;;;;;4999452;28;21987;-67
2021/11/15 14:46:31;;;;;;;9.27;4.53;;;;;;;;;;5004663;28;20080;-67
2021/11/15 14:48:58;;;;;;;6.63;4.40;;;;;;;;;;5001880;28;20132;-67